Flight Track Log - Related Links

Times and Time Zones

All times are in EDT time to prevent confusion due to time zone crossing. See the AAL2007 flight status page for this flight to view local times or setup timezone preferences in your user account.

Time Position Orientation Groundspeed Altitude Reporting Facility
EDT Latitude Longitude Course Direction KTS MPH feet Rate Location/Type
Thu 07:44:25 PM 41.9333 -87.9167 207° Southwest 179 206 2,300  Level Chicago TRACON
Thu 07:45:25 PM 41.8833 -87.9167 180° South 212 244 3,800 1,276 Climbing Chicago TRACON
Thu 07:46:00 PM 41.7009 -88.1876 201° Southwest  Level Estimated
Thu 07:46:32 PM 41.8017 -87.9075 175° South 239 275 5,000  Level Chicago Center
Thu 07:47:00 PM 41.6072 -88.2807 197° South  Level Estimated
Thu 07:47:34 PM 41.7336 -87.9358 197° South 262 302 7,400  Level Chicago Center
Thu 07:48:00 PM 41.5134 -88.3736 194° South  Level Estimated
Thu 07:48:37 PM 41.6658 -87.9847 208° Southwest 278 320 9,700  Level Chicago Center
Thu 07:49:00 PM 41.4195 -88.4661 207° Southwest  Level Estimated
Thu 07:49:39 PM 41.5922 -88.0378 208° Southwest 300 345 11,700  Level Chicago Center
Thu 07:50:41 PM 41.4922 -88.1128 209° Southwest 359 413 13,300 1,742 Climbing Chicago Center
Thu 07:51:43 PM 41.3992 -88.1803 209° Southwest 399 459 15,300 1,984 Climbing Chicago Center
Thu 07:52:45 PM 41.2944 -88.2283 199° South 406 467 17,400 2,032 Climbing Chicago Center
Thu 07:53:47 PM 41.1628 -88.2894 199° South 421 484 19,500 1,790 Climbing Chicago Center
Thu 07:54:49 PM 41.0494 -88.3394 198° South 431 496 21,100 1,355 Climbing Chicago Center
Thu 07:55:51 PM 40.9325 -88.3911 198° South 442 509 22,300 1,113 Climbing Chicago Center
Thu 07:56:53 PM 40.8100 -88.4478 199° South 465 535 23,400 1,210 Climbing Chicago Center
Thu 07:57:55 PM 40.6839 -88.5031 198° South 479 551 24,800 1,597 Climbing Chicago Center
Thu 07:58:57 PM 40.5314 -88.5717 199° South 484 557 26,700 1,536 Climbing Chicago Center
Thu 08:00:00 PM 40.4186 -88.6206 198° South 483 556 28,000 1,296 Climbing Chicago Center
Thu 08:01:02 PM 40.2983 -88.6933 205° Southwest 475 547 29,400 1,403 Climbing Chicago Center
Thu 08:02:04 PM 40.1842 -88.8364 224° Southwest 471 542 30,900 1,065 Climbing Chicago Center
Thu 08:03:06 PM 40.0922 -88.9547 225° Southwest 465 535 31,600 532 Climbing Chicago Center
Thu 08:04:08 PM 39.9972 -89.0750 224° Southwest 471 542 32,000 194 Climbing Chicago Center
Thu 08:05:10 PM 39.9033 -89.1958 225° Southwest 471 542 32,000  Level Chicago Center
Thu 08:05:58 PM 39.8275 -89.2911 224° Southwest 470 541 32,000  Level Kansas City Center
Thu 08:07:00 PM 39.7342 -89.4089 224° Southwest 467 537 32,000  Level Kansas City Center
Thu 08:08:02 PM 39.6269 -89.5447 224° Southwest 468 539 32,000  Level Kansas City Center
Thu 08:09:04 PM 39.5328 -89.6578 223° Southwest 465 535 32,000  Level Kansas City Center
Thu 08:10:06 PM 39.4403 -89.7711 223° Southwest 461 531 32,000  Level Kansas City Center
Thu 08:11:09 PM 39.3481 -89.8853 224° Southwest 460 529 32,000  Level Kansas City Center
Thu 08:12:11 PM 39.2536 -89.9986 223° Southwest 463 533 32,000  Level Kansas City Center
Thu 08:13:13 PM 39.1617 -90.1131 224° Southwest 462 532 32,000  Level Kansas City Center
Thu 08:14:15 PM 39.0508 -90.2506 224° Southwest 463 533 32,000  Level Kansas City Center
Thu 08:15:17 PM 38.9581 -90.3639 224° Southwest 464 534 32,000  Level Kansas City Center
Thu 08:16:19 PM 38.8708 -90.4731 224° Southwest 455 524 32,000  Level Kansas City Center
Thu 08:17:21 PM 38.7750 -90.5833 222° Southwest 455 524 32,000  Level Kansas City Center
Thu 08:18:23 PM 38.6594 -90.7136 221° Southwest 475 547 32,000  Level Kansas City Center
Thu 08:19:25 PM 38.5656 -90.8225 222° Southwest 464 534 32,000  Level Kansas City Center
Thu 08:20:27 PM 38.4714 -90.9317 222° Southwest 461 531 32,000  Level Kansas City Center
Thu 08:21:29 PM 38.3775 -91.0381 222° Southwest 457 526 32,000  Level Kansas City Center
Thu 08:22:31 PM 38.2831 -91.1447 222° Southwest 456 525 32,000  Level Kansas City Center
Thu 08:23:33 PM 38.1694 -91.2736 222° Southwest 458 527 32,000  Level Kansas City Center
Thu 08:24:35 PM 38.0847 -91.3681 221° Southwest 460 529 32,000  Level Kansas City Center
Thu 08:25:37 PM 37.9694 -91.4986 222° Southwest 460 529 32,000  Level Kansas City Center
Thu 08:26:39 PM 37.8717 -91.6064 221° Southwest 461 531 32,000  Level Kansas City Center
Thu 08:27:41 PM 37.7767 -91.7144 222° Southwest 457 526 32,000  Level Kansas City Center
Thu 08:28:43 PM 37.6797 -91.8225 221° Southwest 459 528 32,000  Level Kansas City Center
Thu 08:29:45 PM 37.5828 -91.9300 221° Southwest 460 529 32,000  Level Kansas City Center
Thu 08:30:47 PM 37.4883 -92.0372 222° Southwest 455 524 32,000  Level Kansas City Center
Thu 08:31:49 PM 37.3922 -92.1447 222° Southwest 456 525 32,000  Level Kansas City Center
Thu 08:32:51 PM 37.2958 -92.2475 220° Southwest 453 521 32,000  Level Kansas City Center
Thu 08:33:53 PM 37.1814 -92.3719 221° Southwest 452 520 32,000  Level Kansas City Center
Thu 08:34:55 PM 37.0861 -92.4775 221° Southwest 453 521 32,000  Level Kansas City Center
Thu 08:35:57 PM 36.9886 -92.5806 220° Southwest 455 524 32,000  Level Kansas City Center
Thu 08:36:59 PM 36.8933 -92.6858 221° Southwest 456 525 32,000  Level Kansas City Center
Thu 08:38:01 PM 36.7986 -92.7889 221° Southwest 452 520 32,000  Level Kansas City Center
Thu 08:39:03 PM 36.7031 -92.8903 220° Southwest 451 519 32,000  Level Kansas City Center
Thu 08:40:05 PM 36.6081 -92.9919 221° Southwest 450 518 32,000  Level Kansas City Center
Thu 08:41:07 PM 36.5058 -93.1000 220° Southwest 451 519 32,000  Level Kansas City Center
Thu 08:42:09 PM 36.4122 -93.2014 221° Southwest 449 517 32,000  Level Kansas City Center
Thu 08:42:43 PM 36.3519 -93.2661 221° Southwest 457 526 32,000  Level Memphis Center
Thu 08:43:43 PM 36.2558 -93.3656 220° Southwest 457 526 32,000  Level Memphis Center
Thu 08:44:43 PM 36.1636 -93.4650 221° Southwest 462 532 32,000  Level Memphis Center
Thu 08:45:43 PM 36.0592 -93.5561 215° Southwest 457 526 32,000  Level Memphis Center
Thu 08:46:43 PM 35.9550 -93.6392 213° Southwest 451 519 32,000  Level Memphis Center
Thu 08:47:43 PM 35.8525 -93.7247 214° Southwest 451 519 32,000  Level Memphis Center
Thu 08:48:43 PM 35.7503 -93.8075 213° Southwest 451 519 32,000  Level Memphis Center
Thu 08:49:43 PM 35.6475 -93.8978 216° Southwest 451 519 32,000  Level Memphis Center
Thu 08:50:43 PM 35.5408 -93.9828 213° Southwest 461 531 32,000  Level Memphis Center
Thu 08:51:43 PM 35.4361 -94.0672 213° Southwest 461 531 32,000  Level Memphis Center
Thu 08:52:43 PM 35.3314 -94.1542 214° Southwest 455 524 32,000  Level Memphis Center
Thu 08:53:43 PM 35.2267 -94.2386 213° Southwest 455 524 32,000  Level Memphis Center
Thu 08:54:43 PM 35.1236 -94.3250 214° Southwest 460 529 32,000  Level Memphis Center
Thu 08:55:43 PM 35.0189 -94.4064 212° Southwest 460 529 32,000  Level Memphis Center
Thu 08:56:25 PM 34.9381 -94.4756 215° Southwest 456 525 32,000  Level Fort Worth Center
Thu 08:57:25 PM 34.8356 -94.5550 212° Southwest 469 540 32,000  Level Fort Worth Center
Thu 08:58:25 PM 34.7311 -94.6444 215° Southwest 464 534 32,000  Level Fort Worth Center
Thu 08:59:24 PM 34.6286 -94.7258 213° Southwest 458 527 32,000  Level Fort Worth Center
Thu 09:00:24 PM 34.5219 -94.8072 212° Southwest 458 527 32,000  Level Fort Worth Center
Thu 09:01:25 PM 34.4192 -94.8911 214° Southwest 458 527 32,000  Level Fort Worth Center
Thu 09:02:24 PM 34.3144 -94.9744 213° Southwest 452 520 32,000  Level Fort Worth Center
Thu 09:03:24 PM 34.2139 -95.0528 213° Southwest 447 514 32,000  Level Fort Worth Center
Thu 09:04:25 PM 34.1047 -95.1386 213° Southwest 455 524 32,000  Level Fort Worth Center
Thu 09:05:25 PM 34.0019 -95.2164 212° Southwest 450 518 32,000  Level Fort Worth Center
Thu 09:06:24 PM 33.8969 -95.2989 213° Southwest 450 518 32,000  Level Fort Worth Center
Thu 09:07:25 PM 33.7897 -95.3817 213° Southwest 455 524 32,000  Level Fort Worth Center
Thu 09:08:24 PM 33.6867 -95.4589 212° Southwest 450 518 32,000  Level Fort Worth Center
Thu 09:09:24 PM 33.5792 -95.5411 213° Southwest 450 518 32,000  Level Fort Worth Center
Thu 09:10:24 PM 33.4883 -95.6078 211° Southwest 450 518 32,000  Level Fort Worth Center
Thu 09:11:25 PM 33.3831 -95.6894 213° Southwest 445 512 32,000  Level Fort Worth Center
Thu 09:12:24 PM 33.2797 -95.7711 213° Southwest 450 518 32,000  Level Fort Worth Center
Thu 09:13:25 PM 33.1764 -95.8522 213° Southwest 450 518 32,000  Level Fort Worth Center
Thu 09:14:24 PM 33.0689 -95.9336 212° Southwest 450 518 32,000  Level Fort Worth Center
Thu 09:15:25 PM 32.9656 -96.0119 212° Southwest 450 518 32,000  Level Fort Worth Center
Thu 09:16:25 PM 32.8619 -96.0903 212° Southwest 450 518 32,000  Level Fort Worth Center
Thu 09:17:25 PM 32.7564 -96.1708 213° Southwest 450 518 32,000  Level Fort Worth Center
Thu 09:18:25 PM 32.6506 -96.2464 211° Southwest 450 518 32,000  Level Fort Worth Center
Thu 09:19:24 PM 32.5406 -96.3167 208° Southwest 445 512 32,000  Level Fort Worth Center
Thu 09:20:24 PM 32.4306 -96.3919 210° Southwest 445 512 32,000 -250 Level Fort Worth Center
Thu 09:21:24 PM 32.3267 -96.4644 211° Southwest 445 512 31,500 -744 Descending Fort Worth Center
Thu 09:22:25 PM 32.2186 -96.5392 210° Southwest 445 512 30,500 -1,100 Descending Fort Worth Center
Thu 09:23:24 PM 32.1106 -96.6114 210° Southwest 445 512 29,300 -1,400 Descending Fort Worth Center
Thu 09:24:25 PM 31.9983 -96.6858 209° Southwest 445 512 27,700 -1,650 Descending Fort Worth Center
Thu 09:25:24 PM 31.8778 -96.7675 210° Southwest 457 526 26,000 -1,680 Descending Fort Worth Center
Thu 09:26:05 PM 31.8058 -96.8150 209° Southwest 465 535 24,900 -1,398 Descending Houston Center
Thu 09:27:07 PM 31.6917 -96.8917 210° Southwest 467 537 23,600 -1,220 Descending Houston Center
Thu 09:28:08 PM 31.5797 -96.9656 209° Southwest 459 528 22,400 -1,171 Descending Houston Center
Thu 09:29:10 PM 31.4681 -97.0389 209° Southwest 456 525 21,200 -1,415 Descending Houston Center
Thu 09:30:11 PM 31.3619 -97.1094 210° Southwest 438 504 19,500 -1,659 Descending Houston Center
Thu 09:31:13 PM 31.2569 -97.1789 209° Southwest 431 496 17,800 -1,610 Descending Houston Center
Thu 09:32:14 PM 31.1481 -97.2339 203° Southwest 424 488 16,200 -1,756 Descending Houston Center
Thu 09:33:16 PM 31.0222 -97.2822 198° South 408 470 14,200 -1,561 Descending Houston Center
Thu 09:34:17 PM 30.9203 -97.3228 199° South 403 464 13,000 -590 Descending Houston Center
Thu 09:35:18 PM 30.8158 -97.3617 198° South 398 458 13,000 -195 Level Houston Center
Thu 09:36:20 PM 30.7264 -97.4319 214° Southwest 388 447 12,600 -780 Descending Houston Center
Thu 09:37:21 PM 30.6631 -97.5050 225° Southwest 325 374 11,400 -1,659 Descending Houston Center
Thu 09:38:23 PM 30.6083 -97.5747 228° Southwest 297 342 9,200 -2,341 Descending Houston Center
Thu 09:39:24 PM 30.5497 -97.6303 219° Southwest 281 323 6,600 -2,146 Descending Houston Center
Thu 09:40:26 PM 30.4856 -97.6722 209° Southwest 264 304 4,800 -1,171 Descending Houston Center
Thu 09:41:27 PM 30.4261 -97.6764 183° South 234 269 4,200 -689 Descending Houston Center
Thu 09:42:28 PM 30.3611 -97.6608 168° South 207 238 3,400 -878 Descending Houston Center
Thu 09:43:30 PM 30.3061 -97.6594 179° South 202 232 2,400 -968 Descending Houston Center

Login

Don't have an account? Register now (free) for customized features, flight alerts, and more!